• Join FlightAware (Why Join?)
  • Login
  • US Flag GB Flag 
09:02 EDT


 

Airport Tracker/Info


-or-


 

Live Flight TrackerFlight Track Log ✈ SWA2661 ✈ 05-Jan-2013 ✈ KMHT - KMCO

Flight Track Log - Related Links

Times and Time Zones

All times are in EST time to prevent confusion due to time zone crossing. See the SWA2661 flight status page for this flight to view local times or setup timezone preferences in your user account.

Time Position Orientation Groundspeed Altitude Reporting Facility
EST Latitude Longitude Course Direction KTS MPH feet Rate Location/Type
16:11 42.9500 -71.4333 324° Northwest 142 163 1,500  Level KA90
16:12 42.9833 -71.4667 324° Northwest 190 219 4,300 3,420 Climbing KA90
16:13 43.0317 -71.4431 20° North 209 241 8,000 3,300 Climbing Boston Center
16:14 43.0411 -71.3436 83° East 203 234 10,700 2,940 Climbing Boston Center
16:15 43.0506 -71.2297 83° East 261 300 13,900 2,520 Climbing Boston Center
16:16 43.0408 -71.1192 97° East 303 349 15,800 2,280 Climbing Boston Center
16:17 42.9464 -71.0475 151° Southeast 297 342 18,500 1,740 Climbing Boston Center
16:18 42.8619 -70.9786 149° Southeast 320 368 19,300 1,500 Climbing Boston Center
16:19 42.7517 -70.9925 185° South 361 415 21,500 2,520 Climbing Boston Center
16:20 42.6317 -71.0572 202° Southwest 391 450 24,400 2,400 Climbing Boston Center
16:21 42.5558 -71.1547 223° Southwest 379 436 26,300 2,460 Climbing Boston Center
16:22 42.4964 -71.2658 234° Southwest 357 411 29,400 2,580 Climbing Boston Center
16:23 42.4414 -71.3794 237° Southwest 362 417 31,500 1,260 Climbing Boston Center
16:24 42.3881 -71.4900 237° Southwest 362 417 32,000 240 Climbing Boston Center
16:25 42.3283 -71.5919 232° Southwest 362 417 32,000  Level Boston Center
16:26 42.2731 -71.7050 237° Southwest 362 417 32,100 900 Climbing Boston Center
16:27 42.2153 -71.8122 234° Southwest 362 417 33,900 1,680 Climbing Boston Center
16:28 42.1594 -71.9219 236° Southwest 362 417 35,500 1,800 Climbing Boston Center
16:29 42.1058 -72.0231 234° Southwest 362 417 37,500 1,200 Climbing Boston Center
16:30 42.0519 -72.1269 235° Southwest 357 411 38,000 240 Climbing Boston Center
16:31 42.0000 -72.2306 236° Southwest 346 398 38,000  Level Boston Center
16:32 41.9461 -72.3311 234° Southwest 346 398 38,000  Level Boston Center
16:33 41.8919 -72.4344 235° Southwest 346 398 38,000  Level Boston Center
16:34 41.8419 -72.5319 235° Southwest 335 386 38,000  Level Boston Center
16:35 41.7875 -72.6322 234° Southwest 335 386 38,000  Level Boston Center
16:36 41.7372 -72.7322 236° Southwest 335 386 38,000  Level Boston Center
16:37 41.6869 -72.8264 234° Southwest 335 386 38,000  Level Boston Center
16:38 41.6344 -72.9233 234° Southwest 335 386 38,000  Level Boston Center
16:39 41.5842 -73.0200 235° Southwest 335 386 38,000  Level Boston Center
16:40 41.5439 -73.0975 235° Southwest 335 386 38,000  Level Boston Center
16:41 41.4914 -73.1967 235° Southwest 323 372 38,000  Level Boston Center
16:42 41.4364 -73.2956 233° Southwest 323 372 38,000  Level Boston Center
16:43 41.3878 -73.3919 236° Southwest 323 372 38,000  Level Boston Center
16:45 41.2736 -73.5981 234° Southwest 331 381 38,000  Level New York Center
16:46 41.2150 -73.6947 231° Southwest 331 381 38,000  Level New York Center
16:47 41.1606 -73.7917 233° Southwest 336 387 38,000  Level New York Center
16:48 41.1017 -73.8881 231° Southwest 336 387 38,000  Level New York Center
16:49 41.0469 -73.9847 233° Southwest 336 387 38,000  Level New York Center
16:50 40.9881 -74.0836 232° Southwest 336 387 38,000  Level New York Center
16:51 40.9292 -74.1767 230° Southwest 336 387 38,000  Level New York Center
16:52 40.8681 -74.2697 229° Southwest 336 387 38,000  Level New York Center
16:53 40.8092 -74.3600 229° Southwest 336 387 38,000  Level New York Center
16:54 40.7358 -74.4381 219° Southwest 342 394 38,000  Level New York Center
16:55 40.6603 -74.5217 220° Southwest 342 394 38,000  Level New York Center
16:56 40.5869 -74.5997 219° Southwest 347 399 38,000  Level New York Center
16:57 40.5158 -74.6775 220° Southwest 347 399 38,000  Level New York Center
16:58 40.4422 -74.7578 220° Southwest 342 394 38,000  Level New York Center
17:00 40.3094 -74.9006 219° Southwest 371 427 38,000  Level Washington Center
17:01 40.2369 -74.9772 219° Southwest 358 412 38,000  Level Washington Center
17:02 40.1542 -75.0675 220° Southwest 351 404 38,000  Level Washington Center
17:03 40.0939 -75.1306 219° Southwest 351 404 38,000  Level Washington Center
17:04 40.0047 -75.2286 220° Southwest 351 404 38,000  Level Washington Center
17:05 39.9300 -75.3047 218° Southwest 356 410 38,000  Level Washington Center
17:06 39.8531 -75.3861 219° Southwest 356 410 38,000  Level Washington Center
17:07 39.7781 -75.4647 219° Southwest 356 410 38,000  Level Washington Center
17:08 39.7031 -75.5431 219° Southwest 350 403 38,000  Level Washington Center
17:09 39.6219 -75.6239 218° Southwest 350 403 38,000  Level Washington Center
17:10 39.5447 -75.7044 219° Southwest 355 409 38,000  Level Washington Center
17:11 39.4675 -75.7906 221° Southwest 360 414 38,000  Level Washington Center
17:12 39.3883 -75.8708 218° Southwest 365 420 38,000  Level Washington Center
17:13 39.3089 -75.9511 218° Southwest 370 426 38,000  Level Washington Center
17:14 39.2314 -76.0336 220° Southwest 375 432 38,000  Level Washington Center
17:15 39.1497 -76.1136 217° Southwest 375 432 38,000 480 Level Washington Center
17:16 39.0703 -76.1906 217° Southwest 375 432 39,000 1,020 Climbing Washington Center
17:17 38.9928 -76.2753 220° Southwest 375 432 40,000 480 Climbing Washington Center
17:18 38.9131 -76.3547 218° Southwest 375 432 40,000  Level Washington Center
17:19 38.8333 -76.4339 218° Southwest 375 432 40,000  Level Washington Center
17:20 38.7536 -76.5128 218° Southwest 375 432 40,000  Level Washington Center
17:21 38.6736 -76.5942 218° Southwest 375 432 40,000  Level Washington Center
17:22 38.5936 -76.6728 218° Southwest 375 432 40,000  Level Washington Center
17:23 38.5158 -76.7511 218° Southwest 375 432 40,000  Level Washington Center
17:24 38.4358 -76.8322 218° Southwest 375 432 40,000  Level Washington Center
17:25 38.3578 -76.9103 218° Southwest 375 432 40,000  Level Washington Center
17:26 38.2778 -76.9883 217° Southwest 370 426 40,000  Level Washington Center
17:27 38.1997 -77.0633 217° Southwest 370 426 40,000  Level Washington Center
17:28 38.1217 -77.1383 217° Southwest 370 426 40,000  Level Washington Center
17:29 38.0433 -77.2158 218° Southwest 370 426 40,000  Level Washington Center
17:30 37.9672 -77.2958 220° Southwest 370 426 40,000  Level Washington Center
17:31 37.8869 -77.3731 217° Southwest 370 426 40,000  Level Washington Center
17:32 37.8086 -77.4500 218° Southwest 370 426 40,000  Level Washington Center
17:33 37.7344 -77.5217 217° Southwest 370 426 40,000  Level Washington Center
17:34 37.6539 -77.6011 218° Southwest 370 426 40,000  Level Washington Center
17:35 37.5672 -77.6694 212° Southwest 375 432 40,000  Level Washington Center
17:36 37.4742 -77.7325 208° Southwest 375 432 40,000  Level Washington Center
17:37 37.3833 -77.7978 210° Southwest 375 432 40,000  Level Washington Center
17:38 37.2925 -77.8631 210° Southwest 386 444 40,000  Level Washington Center
17:39 37.2017 -77.9231 208° Southwest 381 438 40,000  Level Washington Center
17:40 37.1106 -77.9881 210° Southwest 381 438 40,000  Level Washington Center
17:41 37.0197 -78.0500 209° Southwest 381 438 40,000  Level Washington Center
17:42 36.9264 -78.1147 209° Southwest 381 438 40,000  Level Washington Center
17:43 36.8356 -78.1792 210° Southwest 381 438 40,000  Level Washington Center
17:44 36.7444 -78.2408 208° Southwest 381 438 40,000  Level Washington Center
17:45 36.6447 -78.3128 210° Southwest 381 438 40,000  Level Washington Center
17:46 36.5514 -78.3767 209° Southwest 381 438 40,000  Level Washington Center
17:47 36.4581 -78.4406 209° Southwest 381 438 40,000  Level Washington Center
17:48 36.3647 -78.5042 209° Southwest 381 438 40,000  Level Washington Center
17:49 36.2736 -78.5678 209° Southwest 381 438 40,000  Level Washington Center
17:50 36.1803 -78.6286 208° Southwest 381 438 40,000  Level Washington Center
17:51 36.0847 -78.6942 209° Southwest 381 438 40,000  Level Washington Center
17:52 35.9911 -78.7572 209° Southwest 381 438 40,000  Level Washington Center
17:53 35.8956 -78.8175 207° Southwest 386 444 40,000  Level Washington Center
17:54 35.8106 -78.8756 209° Southwest 386 444 40,000 -300 Level Washington Center
17:55 35.7192 -78.9383 209° Southwest 386 444 39,500 -720 Descending Washington Center
17:56 35.6233 -79.0008 208° Southwest 386 444 38,600 -780 Descending Washington Center
17:57 35.5300 -79.0606 208° Southwest 386 444 38,000 -300 Descending Washington Center
17:58 35.4300 -79.1275 209° Southwest 381 438 38,000  Level Washington Center
17:59 35.3342 -79.1897 208° Southwest 386 444 38,000  Level Washington Center
18:00 35.2467 -79.2492 209° Southwest 392 451 38,000  Level Washington Center
18:01 35.1511 -79.3083 207° Southwest 392 451 38,000  Level Washington Center
18:02 35.0572 -79.3700 208° Southwest 392 451 38,000  Level Washington Center
18:05 34.7789 -79.5486 208° Southwest 375 432 38,000  Level Jacksonville Center
18:06 34.6867 -79.6078 208° Southwest 375 432 38,000  Level Jacksonville Center
18:07 34.5900 -79.6619 205° Southwest 380 437 38,000  Level Jacksonville Center
18:08 34.4822 -79.6911 193° South 390 449 38,000  Level Jacksonville Center
18:09 34.3725 -79.7228 193° South 400 460 38,000  Level Jacksonville Center
18:10 34.2711 -79.7542 194° South 395 455 38,000  Level Jacksonville Center
18:11 34.1633 -79.7856 194° South 395 455 38,000  Level Jacksonville Center
18:12 34.0536 -79.8172 193° South 395 455 38,000  Level Jacksonville Center
18:13 33.9458 -79.8483 193° South 395 455 38,000  Level Jacksonville Center
18:14 33.8358 -79.8797 193° South 400 460 38,000  Level Jacksonville Center
18:15 33.7281 -79.9108 194° South 400 460 38,000  Level Jacksonville Center
18:16 33.6203 -79.9419 194° South 400 460 38,000  Level Jacksonville Center
18:17 33.5042 -79.9733 193° South 400 460 38,000  Level Jacksonville Center
18:18 33.3986 -80.0042 194° South 400 460 38,000  Level Jacksonville Center
18:19 33.2928 -80.0350 194° South 395 455 38,000  Level Jacksonville Center
18:20 33.1869 -80.0631 193° South 395 455 38,000  Level Jacksonville Center
18:21 33.0811 -80.0936 194° South 395 455 38,000  Level Jacksonville Center
18:22 32.9878 -80.1214 194° South 390 449 38,000  Level Jacksonville Center
18:23 32.8675 -80.1522 192° South 398 458 38,000  Level Jacksonville Center
18:24 32.7617 -80.1828 194° South 398 458 38,000  Level Jacksonville Center
18:25 32.6558 -80.2131 194° South 393 452 38,000  Level Jacksonville Center
18:26 32.5500 -80.2433 194° South 393 452 38,000  Level Jacksonville Center
18:27 32.4422 -80.2733 193° South 393 452 38,000  Level Jacksonville Center
18:28 32.3364 -80.3011 193° South 393 452 38,000  Level Jacksonville Center
18:29 32.2283 -80.3311 193° South 393 452 38,000  Level Jacksonville Center
18:30 32.1225 -80.3586 192° South 393 452 38,000  Level Jacksonville Center
18:31 32.0144 -80.3911 194° South 397 457 38,000  Level Jacksonville Center
18:32 31.9064 -80.4208 193° South 398 458 38,000  Level Jacksonville Center
18:33 31.8006 -80.4506 193° South 404 465 38,000  Level Jacksonville Center
18:34 31.7031 -80.4775 193° South 399 459 38,000  Level Jacksonville Center
18:35 31.5742 -80.5053 190° South 425 489 38,000  Level Jacksonville Center
18:36 31.4619 -80.5325 192° South 419 482 38,000  Level Jacksonville Center
18:37 31.3497 -80.5622 193° South 419 482 38,000  Level Jacksonville Center
18:38 31.2394 -80.5917 193° South 419 482 38,000  Level Jacksonville Center
18:39 31.1336 -80.6256 195° South 414 476 38,000  Level Jacksonville Center
18:40 31.0236 -80.6575 194° South 404 465 38,000  Level Jacksonville Center
18:41 30.9156 -80.6867 193° South 404 465 38,000  Level Jacksonville Center
18:42 30.8075 -80.7158 193° South 404 465 38,000  Level Jacksonville Center
18:43 30.6994 -80.7425 192° South 404 465 38,000 -360 Level Jacksonville Center
18:44 30.5892 -80.7739 194° South 404 465 37,300 -900 Descending Jacksonville Center
18:45 30.4811 -80.8028 193° South 409 471 36,300 -960 Descending Jacksonville Center
18:46 30.3667 -80.8294 191° South 414 476 35,400 -900 Descending Jacksonville Center
18:47 30.2628 -80.8508 190° South 414 476 34,600 -720 Descending Jacksonville Center
18:48 30.1503 -80.8747 190° South 414 476 34,000 -300 Descending Jacksonville Center
18:49 30.0358 -80.8964 189° South 414 476 34,000  Level Jacksonville Center
18:50 29.9214 -80.9203 190° South 419 482 34,000 -1,200 Level Jacksonville Center
18:51 29.8111 -80.9394 189° South 419 482 31,600 -2,880 Descending Jacksonville Center
18:52 29.6944 -80.9631 190° South 419 482 28,300 -3,000 Descending Jacksonville Center
18:53 29.5800 -80.9869 190° South 419 482 25,600 -2,700 Descending Jacksonville Center
18:54 29.4633 -81.0058 188° South 404 465 22,900 -2,580 Descending Jacksonville Center
18:55 29.3572 -81.0244 189° South 383 441 20,500 -2,400 Descending Jacksonville Center
18:56 29.2594 -81.0456 191° South 367 422 18,100 6,720 Descending Jacksonville Center
18:57 29.1594 -81.0639 189° South 361 415 34,000 -2,400 Climbing Jacksonville Center
18:58 29.0639 -81.0847 191° South 357 411 13,300 -11,040 Descending Jacksonville Center
18:59 28.9761 -81.0839 180° South 348 400 12,000 -1,200 Descending Jacksonville Center
19:00 28.8781 -81.0881 182° South 348 400 11,000 -1,020 Descending Jacksonville Center
19:01 28.7886 -81.1086 191° South 348 400 10,000 -1,020 Descending Jacksonville Center
19:02 28.7094 -81.1244 190° South 322 371 9,000 -540 Descending Jacksonville Center
19:03 28.6325 -81.1400 190° South 302 348 9,000  Level Jacksonville Center
19:04 28.5556 -81.1556 190° South 288 331 9,000 -660 Level Jacksonville Center
19:05 28.4667 -81.1667 186° South 276 318 7,700 -960 Descending Orlando TRACON
19:06 28.4000 -81.1833 192° South 225 259 7,100 -1,080 Descending Orlando TRACON
19:07 28.3333 -81.1833 180° South 218 251 5,500 -1,500 Descending Orlando TRACON
19:08 28.2833 -81.2000 196° South 217 250 4,100 -1,620 Descending Orlando TRACON
19:09 28.3000 -81.2667 286° West 224 258 2,400 -1,200 Descending Orlando TRACON
19:10 28.3500 -81.2833 344° North 160 184 1,700 -900 Descending Orlando TRACON
19:11 28.3833 -81.2833 360° North 128 147 700 -1,020 Descending Orlando TRACON
19:13 28.4167 -81.3000 336° Northwest  Level FlightAware Approximate
19:20 28.4294 -81.3090 336° Northwest  Level Estimated
19:21 28.4294 -81.3090 336° Northwest  Level Estimated
19:22 28.4294 -81.3090 336° Northwest  Level Estimated
19:23 28.4294 -81.3090 336° Northwest  Level Estimated